sensor_id;sensor_type;location;lat;lon;timestamp;P1;durP1;ratioP1;P2;durP2;ratioP2
70049;SDS011;57391;51.306;22.680;2023-04-15T00:00:58;16.00;;;8.20;;
70049;SDS011;57391;51.306;22.680;2023-04-15T00:03:25;18.20;;;9.80;;
70049;SDS011;57391;51.306;22.680;2023-04-15T00:05:52;21.30;;;10.20;;
70049;SDS011;57391;51.306;22.680;2023-04-15T00:08:19;19.50;;;10.50;;
70049;SDS011;57391;51.306;22.680;2023-04-15T00:10:46;18.00;;;10.60;;
70049;SDS011;57391;51.306;22.680;2023-04-15T00:13:13;18.40;;;10.80;;
70049;SDS011;57391;51.306;22.680;2023-04-15T00:15:41;16.20;;;9.80;;
70049;SDS011;57391;51.306;22.680;2023-04-15T00:18:09;17.30;;;9.30;;
70049;SDS011;57391;51.306;22.680;2023-04-15T00:20:36;17.40;;;9.50;;
70049;SDS011;57391;51.306;22.680;2023-04-15T00:23:03;20.30;;;9.80;;
70049;SDS011;57391;51.306;22.680;2023-04-15T00:25:31;17.30;;;8.80;;
70049;SDS011;57391;51.306;22.680;2023-04-15T00:27:58;20.20;;;10.20;;
70049;SDS011;57391;51.306;22.680;2023-04-15T00:30:25;20.60;;;9.00;;
70049;SDS011;57391;51.306;22.680;2023-04-15T00:32:52;17.70;;;9.60;;
70049;SDS011;57391;51.306;22.680;2023-04-15T00:35:21;18.10;;;10.20;;
70049;SDS011;57391;51.306;22.680;2023-04-15T00:37:50;17.10;;;9.10;;
70049;SDS011;57391;51.306;22.680;2023-04-15T00:40:18;17.90;;;9.40;;
70049;SDS011;57391;51.306;22.680;2023-04-15T00:42:47;17.50;;;10.20;;
70049;SDS011;57391;51.306;22.680;2023-04-15T00:45:14;18.90;;;10.00;;
70049;SDS011;57391;51.306;22.680;2023-04-15T00:47:42;17.90;;;9.80;;
70049;SDS011;57391;51.306;22.680;2023-04-15T00:50:11;18.10;;;10.20;;
70049;SDS011;57391;51.306;22.680;2023-04-15T00:52:39;20.30;;;11.20;;
70049;SDS011;57391;51.306;22.680;2023-04-15T00:55:08;22.20;;;13.70;;
70049;SDS011;57391;51.306;22.680;2023-04-15T00:57:35;19.70;;;10.80;;
70049;SDS011;57391;51.306;22.680;2023-04-15T01:00:05;19.50;;;11.40;;
70049;SDS011;57391;51.306;22.680;2023-04-15T01:02:34;20.30;;;12.30;;
70049;SDS011;57391;51.306;22.680;2023-04-15T01:05:02;21.90;;;12.60;;
70049;SDS011;57391;51.306;22.680;2023-04-15T01:07:30;19.00;;;10.40;;
70049;SDS011;57391;51.306;22.680;2023-04-15T01:09:58;16.60;;;10.60;;
70049;SDS011;57391;51.306;22.680;2023-04-15T01:12:26;21.70;;;11.50;;
70049;SDS011;57391;51.306;22.680;2023-04-15T01:14:54;19.80;;;11.30;;
70049;SDS011;57391;51.306;22.680;2023-04-15T01:17:23;22.50;;;10.40;;
70049;SDS011;57391;51.306;22.680;2023-04-15T01:19:51;17.90;;;9.60;;
70049;SDS011;57391;51.306;22.680;2023-04-15T01:22:19;21.10;;;10.50;;
70049;SDS011;57391;51.306;22.680;2023-04-15T01:24:57;15.40;;;8.50;;
70049;SDS011;57391;51.306;22.680;2023-04-15T01:27:39;20.40;;;11.10;;
70049;SDS011;57391;51.306;22.680;2023-04-15T01:30:08;15.30;;;9.20;;
70049;SDS011;57391;51.306;22.680;2023-04-15T01:32:36;15.30;;;9.00;;
70049;SDS011;57391;51.306;22.680;2023-04-15T01:35:04;16.00;;;9.20;;
70049;SDS011;57391;51.306;22.680;2023-04-15T01:37:32;17.40;;;8.60;;
70049;SDS011;57391;51.306;22.680;2023-04-15T01:39:59;16.40;;;10.80;;
70049;SDS011;57391;51.306;22.680;2023-04-15T01:42:26;16.30;;;9.40;;
70049;SDS011;57391;51.306;22.680;2023-04-15T01:44:54;16.60;;;9.80;;
70049;SDS011;57391;51.306;22.680;2023-04-15T01:47:21;16.80;;;8.90;;
70049;SDS011;57391;51.306;22.680;2023-04-15T01:49:48;16.20;;;9.30;;
70049;SDS011;57391;51.306;22.680;2023-04-15T01:52:15;14.60;;;8.40;;
70049;SDS011;57391;51.306;22.680;2023-04-15T01:54:43;14.90;;;9.50;;
70049;SDS011;57391;51.306;22.680;2023-04-15T01:57:11;15.70;;;8.80;;
70049;SDS011;57391;51.306;22.680;2023-04-15T01:59:39;17.00;;;9.40;;
70049;SDS011;57391;51.306;22.680;2023-04-15T02:02:06;14.20;;;9.30;;
70049;SDS011;57391;51.306;22.680;2023-04-15T02:04:34;17.80;;;11.20;;
70049;SDS011;57391;51.306;22.680;2023-04-15T02:07:00;16.00;;;8.90;;
70049;SDS011;57391;51.306;22.680;2023-04-15T02:09:28;16.10;;;9.90;;
70049;SDS011;57391;51.306;22.680;2023-04-15T02:11:56;15.90;;;9.40;;
70049;SDS011;57391;51.306;22.680;2023-04-15T02:14:24;14.50;;;9.10;;
70049;SDS011;57391;51.306;22.680;2023-04-15T02:16:51;17.50;;;9.30;;
70049;SDS011;57391;51.306;22.680;2023-04-15T02:19:18;18.10;;;10.70;;
70049;SDS011;57391;51.306;22.680;2023-04-15T02:21:45;15.60;;;9.30;;
70049;SDS011;57391;51.306;22.680;2023-04-15T02:24:12;13.50;;;8.40;;
70049;SDS011;57391;51.306;22.680;2023-04-15T02:26:41;15.00;;;9.90;;
70049;SDS011;57391;51.306;22.680;2023-04-15T02:29:07;13.70;;;8.50;;
70049;SDS011;57391;51.306;22.680;2023-04-15T02:31:34;15.60;;;8.10;;
70049;SDS011;57391;51.306;22.680;2023-04-15T02:34:05;16.60;;;10.50;;
70049;SDS011;57391;51.306;22.680;2023-04-15T02:36:33;19.10;;;8.40;;
70049;SDS011;57391;51.306;22.680;2023-04-15T02:39:00;17.40;;;10.70;;
70049;SDS011;57391;51.306;22.680;2023-04-15T02:41:28;16.80;;;10.20;;
70049;SDS011;57391;51.306;22.680;2023-04-15T02:43:56;15.20;;;8.50;;
70049;SDS011;57391;51.306;22.680;2023-04-15T02:46:23;17.20;;;10.90;;
70049;SDS011;57391;51.306;22.680;2023-04-15T02:48:50;12.40;;;7.80;;
70049;SDS011;57391;51.306;22.680;2023-04-15T02:51:21;15.40;;;9.40;;
70049;SDS011;57391;51.306;22.680;2023-04-15T02:53:48;17.20;;;10.80;;
70049;SDS011;57391;51.306;22.680;2023-04-15T02:56:16;15.30;;;9.10;;
70049;SDS011;57391;51.306;22.680;2023-04-15T02:58:45;16.40;;;9.70;;
70049;SDS011;57391;51.306;22.680;2023-04-15T03:01:12;15.60;;;8.20;;
70049;SDS011;57391;51.306;22.680;2023-04-15T03:03:39;13.80;;;8.50;;
70049;SDS011;57391;51.306;22.680;2023-04-15T03:06:06;15.80;;;9.50;;
70049;SDS011;57391;51.306;22.680;2023-04-15T03:08:34;17.90;;;10.40;;
70049;SDS011;57391;51.306;22.680;2023-04-15T03:11:02;15.60;;;9.90;;
70049;SDS011;57391;51.306;22.680;2023-04-15T03:13:31;17.90;;;9.60;;
70049;SDS011;57391;51.306;22.680;2023-04-15T03:15:58;14.90;;;8.80;;
70049;SDS011;57391;51.306;22.680;2023-04-15T03:18:26;13.80;;;8.50;;
70049;SDS011;57391;51.306;22.680;2023-04-15T03:20:54;13.50;;;8.30;;
70049;SDS011;57391;51.306;22.680;2023-04-15T03:23:22;12.30;;;7.80;;
70049;SDS011;57391;51.306;22.680;2023-04-15T03:25:49;14.40;;;9.00;;
70049;SDS011;57391;51.306;22.680;2023-04-15T03:28:16;12.00;;;8.00;;
70049;SDS011;57391;51.306;22.680;2023-04-15T03:30:43;14.30;;;8.90;;
70049;SDS011;57391;51.306;22.680;2023-04-15T03:33:10;14.00;;;8.70;;
70049;SDS011;57391;51.306;22.680;2023-04-15T03:35:37;13.00;;;8.10;;
70049;SDS011;57391;51.306;22.680;2023-04-15T03:38:04;12.90;;;7.90;;
70049;SDS011;57391;51.306;22.680;2023-04-15T03:40:32;11.30;;;6.90;;
70049;SDS011;57391;51.306;22.680;2023-04-15T03:43:00;12.90;;;8.40;;
70049;SDS011;57391;51.306;22.680;2023-04-15T03:45:27;12.70;;;7.30;;
70049;SDS011;57391;51.306;22.680;2023-04-15T03:47:54;15.20;;;9.20;;
70049;SDS011;57391;51.306;22.680;2023-04-15T03:50:21;11.50;;;6.80;;
70049;SDS011;57391;51.306;22.680;2023-04-15T03:52:49;11.70;;;7.70;;
70049;SDS011;57391;51.306;22.680;2023-04-15T03:55:16;12.40;;;7.50;;
70049;SDS011;57391;51.306;22.680;2023-04-15T03:57:43;12.90;;;7.90;;
70049;SDS011;57391;51.306;22.680;2023-04-15T04:00:10;12.90;;;8.60;;
70049;SDS011;57391;51.306;22.680;2023-04-15T04:02:41;13.00;;;8.40;;
70049;SDS011;57391;51.306;22.680;2023-04-15T04:05:08;13.50;;;7.30;;
70049;SDS011;57391;51.306;22.680;2023-04-15T04:07:35;11.50;;;7.10;;
70049;SDS011;57391;51.306;22.680;2023-04-15T04:10:03;11.10;;;7.60;;
70049;SDS011;57391;51.306;22.680;2023-04-15T04:12:30;12.50;;;8.50;;
70049;SDS011;57391;51.306;22.680;2023-04-15T04:14:57;12.30;;;8.00;;
70049;SDS011;57391;51.306;22.680;2023-04-15T04:17:24;12.20;;;7.60;;
70049;SDS011;57391;51.306;22.680;2023-04-15T04:19:51;12.30;;;7.60;;
70049;SDS011;57391;51.306;22.680;2023-04-15T04:22:22;14.20;;;9.10;;
70049;SDS011;57391;51.306;22.680;2023-04-15T04:24:52;11.90;;;8.10;;
70049;SDS011;57391;51.306;22.680;2023-04-15T04:27:18;12.60;;;8.50;;
70049;SDS011;57391;51.306;22.680;2023-04-15T04:29:46;12.30;;;7.50;;
70049;SDS011;57391;51.306;22.680;2023-04-15T04:32:15;14.80;;;8.00;;
70049;SDS011;57391;51.306;22.680;2023-04-15T04:34:43;12.00;;;7.70;;
70049;SDS011;57391;51.306;22.680;2023-04-15T04:37:10;11.10;;;7.40;;
70049;SDS011;57391;51.306;22.680;2023-04-15T04:39:37;11.60;;;6.90;;
70049;SDS011;57391;51.306;22.680;2023-04-15T04:42:04;11.40;;;7.10;;
70049;SDS011;57391;51.306;22.680;2023-04-15T04:44:31;13.40;;;7.80;;
70049;SDS011;57391;51.306;22.680;2023-04-15T04:46:59;11.00;;;7.30;;
70049;SDS011;57391;51.306;22.680;2023-04-15T04:49:25;13.00;;;7.50;;
70049;SDS011;57391;51.306;22.680;2023-04-15T04:51:53;13.00;;;7.60;;
70049;SDS011;57391;51.306;22.680;2023-04-15T04:54:21;11.80;;;7.70;;
70049;SDS011;57391;51.306;22.680;2023-04-15T04:56:48;12.70;;;7.80;;
70049;SDS011;57391;51.306;22.680;2023-04-15T04:59:15;13.20;;;8.80;;
70049;SDS011;57391;51.306;22.680;2023-04-15T05:01:43;11.60;;;7.10;;
70049;SDS011;57391;51.306;22.680;2023-04-15T05:04:10;11.80;;;6.80;;
70049;SDS011;57391;51.306;22.680;2023-04-15T05:06:37;11.30;;;6.90;;
70049;SDS011;57391;51.306;22.680;2023-04-15T05:09:04;12.30;;;7.90;;
70049;SDS011;57391;51.306;22.680;2023-04-15T05:11:31;15.10;;;9.00;;
70049;SDS011;57391;51.306;22.680;2023-04-15T05:13:58;12.90;;;8.50;;
70049;SDS011;57391;51.306;22.680;2023-04-15T05:16:28;11.80;;;7.50;;
70049;SDS011;57391;51.306;22.680;2023-04-15T05:18:55;10.90;;;7.20;;
70049;SDS011;57391;51.306;22.680;2023-04-15T05:21:22;12.10;;;7.10;;
70049;SDS011;57391;51.306;22.680;2023-04-15T05:23:49;11.20;;;6.30;;
70049;SDS011;57391;51.306;22.680;2023-04-15T05:26:16;11.70;;;7.50;;
70049;SDS011;57391;51.306;22.680;2023-04-15T05:28:44;11.50;;;7.40;;
70049;SDS011;57391;51.306;22.680;2023-04-15T05:31:11;12.00;;;7.80;;
70049;SDS011;57391;51.306;22.680;2023-04-15T05:33:39;12.40;;;8.30;;
70049;SDS011;57391;51.306;22.680;2023-04-15T05:36:06;12.00;;;8.40;;
70049;SDS011;57391;51.306;22.680;2023-04-15T05:38:34;12.20;;;7.90;;
70049;SDS011;57391;51.306;22.680;2023-04-15T05:41:01;10.70;;;7.20;;
70049;SDS011;57391;51.306;22.680;2023-04-15T05:43:29;11.40;;;7.90;;
70049;SDS011;57391;51.306;22.680;2023-04-15T05:45:57;10.00;;;6.70;;
70049;SDS011;57391;51.306;22.680;2023-04-15T05:48:24;12.40;;;8.00;;
70049;SDS011;57391;51.306;22.680;2023-04-15T05:50:52;14.00;;;8.40;;
70049;SDS011;57391;51.306;22.680;2023-04-15T05:53:19;11.90;;;7.40;;
70049;SDS011;57391;51.306;22.680;2023-04-15T05:55:47;11.70;;;7.40;;
70049;SDS011;57391;51.306;22.680;2023-04-15T05:58:14;12.80;;;8.20;;
70049;SDS011;57391;51.306;22.680;2023-04-15T06:00:41;10.20;;;7.10;;
70049;SDS011;57391;51.306;22.680;2023-04-15T06:03:10;10.70;;;5.90;;
70049;SDS011;57391;51.306;22.680;2023-04-15T06:05:37;10.80;;;6.40;;
70049;SDS011;57391;51.306;22.680;2023-04-15T06:08:05;10.70;;;6.00;;
70049;SDS011;57391;51.306;22.680;2023-04-15T06:10:34;12.20;;;7.30;;
70049;SDS011;57391;51.306;22.680;2023-04-15T06:13:02;13.10;;;7.70;;
70049;SDS011;57391;51.306;22.680;2023-04-15T06:15:30;11.40;;;7.30;;
70049;SDS011;57391;51.306;22.680;2023-04-15T06:18:04;11.60;;;7.00;;
70049;SDS011;57391;51.306;22.680;2023-04-15T06:20:31;10.50;;;6.80;;
70049;SDS011;57391;51.306;22.680;2023-04-15T06:22:59;11.20;;;6.60;;
70049;SDS011;57391;51.306;22.680;2023-04-15T06:25:26;9.80;;;6.10;;
70049;SDS011;57391;51.306;22.680;2023-04-15T06:27:53;11.40;;;6.60;;
70049;SDS011;57391;51.306;22.680;2023-04-15T06:30:21;11.70;;;6.40;;
70049;SDS011;57391;51.306;22.680;2023-04-15T06:32:48;10.60;;;5.90;;
70049;SDS011;57391;51.306;22.680;2023-04-15T06:35:16;9.60;;;5.60;;
70049;SDS011;57391;51.306;22.680;2023-04-15T06:37:43;9.70;;;6.40;;
70049;SDS011;57391;51.306;22.680;2023-04-15T06:40:11;10.60;;;6.80;;
70049;SDS011;57391;51.306;22.680;2023-04-15T06:42:38;8.40;;;5.40;;
70049;SDS011;57391;51.306;22.680;2023-04-15T06:45:07;10.80;;;6.60;;
70049;SDS011;57391;51.306;22.680;2023-04-15T06:47:34;10.50;;;5.90;;
70049;SDS011;57391;51.306;22.680;2023-04-15T06:50:02;8.90;;;5.50;;
70049;SDS011;57391;51.306;22.680;2023-04-15T06:52:30;10.20;;;6.70;;
70049;SDS011;57391;51.306;22.680;2023-04-15T06:54:57;9.10;;;5.30;;
70049;SDS011;57391;51.306;22.680;2023-04-15T06:57:25;9.60;;;5.60;;
70049;SDS011;57391;51.306;22.680;2023-04-15T06:59:52;9.90;;;6.00;;
70049;SDS011;57391;51.306;22.680;2023-04-15T07:02:20;9.30;;;5.40;;
70049;SDS011;57391;51.306;22.680;2023-04-15T07:04:47;9.70;;;6.30;;
70049;SDS011;57391;51.306;22.680;2023-04-15T07:07:14;9.90;;;6.10;;
70049;SDS011;57391;51.306;22.680;2023-04-15T07:09:43;13.60;;;8.50;;
70049;SDS011;57391;51.306;22.680;2023-04-15T07:12:10;14.00;;;7.70;;
70049;SDS011;57391;51.306;22.680;2023-04-15T07:14:38;12.30;;;7.30;;
70049;SDS011;57391;51.306;22.680;2023-04-15T07:17:05;15.30;;;9.10;;
70049;SDS011;57391;51.306;22.680;2023-04-15T07:19:32;11.50;;;7.60;;
70049;SDS011;57391;51.306;22.680;2023-04-15T07:22:00;10.90;;;6.80;;
70049;SDS011;57391;51.306;22.680;2023-04-15T07:24:27;10.40;;;5.40;;
70049;SDS011;57391;51.306;22.680;2023-04-15T07:26:55;9.70;;;6.80;;
70049;SDS011;57391;51.306;22.680;2023-04-15T07:29:26;10.40;;;6.60;;
70049;SDS011;57391;51.306;22.680;2023-04-15T07:31:54;10.10;;;7.00;;
70049;SDS011;57391;51.306;22.680;2023-04-15T07:34:23;8.20;;;5.80;;
70049;SDS011;57391;51.306;22.680;2023-04-15T07:36:54;9.40;;;5.80;;
70049;SDS011;57391;51.306;22.680;2023-04-15T07:39:22;8.60;;;5.70;;
70049;SDS011;57391;51.306;22.680;2023-04-15T07:41:53;9.20;;;6.00;;
70049;SDS011;57391;51.306;22.680;2023-04-15T07:44:21;12.20;;;7.80;;
70049;SDS011;57391;51.306;22.680;2023-04-15T07:46:48;11.30;;;6.10;;
70049;SDS011;57391;51.306;22.680;2023-04-15T07:49:16;7.70;;;4.90;;
70049;SDS011;57391;51.306;22.680;2023-04-15T07:51:44;7.30;;;4.80;;
70049;SDS011;57391;51.306;22.680;2023-04-15T07:54:11;8.00;;;5.00;;
70049;SDS011;57391;51.306;22.680;2023-04-15T07:56:40;7.30;;;4.60;;
70049;SDS011;57391;51.306;22.680;2023-04-15T07:59:08;8.40;;;4.80;;
70049;SDS011;57391;51.306;22.680;2023-04-15T08:01:36;7.90;;;4.50;;
70049;SDS011;57391;51.306;22.680;2023-04-15T08:04:03;9.90;;;5.30;;
70049;SDS011;57391;51.306;22.680;2023-04-15T08:06:31;8.80;;;4.30;;
70049;SDS011;57391;51.306;22.680;2023-04-15T08:08:59;8.80;;;5.70;;
70049;SDS011;57391;51.306;22.680;2023-04-15T08:11:26;8.00;;;4.50;;
70049;SDS011;57391;51.306;22.680;2023-04-15T08:13:54;11.80;;;5.80;;
70049;SDS011;57391;51.306;22.680;2023-04-15T08:16:25;8.80;;;5.40;;
70049;SDS011;57391;51.306;22.680;2023-04-15T08:18:55;8.00;;;4.30;;
70049;SDS011;57391;51.306;22.680;2023-04-15T08:21:23;6.80;;;4.00;;
70049;SDS011;57391;51.306;22.680;2023-04-15T08:23:52;6.50;;;3.60;;
70049;SDS011;57391;51.306;22.680;2023-04-15T08:26:20;5.90;;;4.00;;
70049;SDS011;57391;51.306;22.680;2023-04-15T08:28:48;7.90;;;4.70;;
70049;SDS011;57391;51.306;22.680;2023-04-15T08:31:16;7.50;;;4.10;;
70049;SDS011;57391;51.306;22.680;2023-04-15T08:33:44;8.00;;;4.50;;
70049;SDS011;57391;51.306;22.680;2023-04-15T08:36:12;7.00;;;4.00;;
70049;SDS011;57391;51.306;22.680;2023-04-15T08:38:39;5.80;;;3.50;;
70049;SDS011;57391;51.306;22.680;2023-04-15T08:41:13;7.20;;;3.70;;
70049;SDS011;57391;51.306;22.680;2023-04-15T08:43:53;6.10;;;3.40;;
70049;SDS011;57391;51.306;22.680;2023-04-15T08:46:24;5.50;;;2.90;;
70049;SDS011;57391;51.306;22.680;2023-04-15T08:48:55;5.50;;;3.10;;
70049;SDS011;57391;51.306;22.680;2023-04-15T08:51:25;4.90;;;2.80;;
70049;SDS011;57391;51.306;22.680;2023-04-15T08:53:54;5.50;;;3.00;;
70049;SDS011;57391;51.306;22.680;2023-04-15T08:56:24;4.90;;;2.80;;
70049;SDS011;57391;51.306;22.680;2023-04-15T08:58:55;6.10;;;3.00;;
70049;SDS011;57391;51.306;22.680;2023-04-15T09:01:23;6.50;;;3.60;;
70049;SDS011;57391;51.306;22.680;2023-04-15T09:03:51;6.40;;;3.30;;
70049;SDS011;57391;51.306;22.680;2023-04-15T09:06:23;6.90;;;3.30;;
70049;SDS011;57391;51.306;22.680;2023-04-15T09:08:51;4.20;;;2.20;;
70049;SDS011;57391;51.306;22.680;2023-04-15T09:11:21;4.70;;;2.00;;
70049;SDS011;57391;51.306;22.680;2023-04-15T09:13:49;3.50;;;2.10;;
70049;SDS011;57391;51.306;22.680;2023-04-15T09:16:17;5.80;;;1.90;;
70049;SDS011;57391;51.306;22.680;2023-04-15T09:18:44;4.10;;;1.80;;
70049;SDS011;57391;51.306;22.680;2023-04-15T09:21:14;4.00;;;1.90;;
70049;SDS011;57391;51.306;22.680;2023-04-15T09:23:56;3.90;;;1.90;;
70049;SDS011;57391;51.306;22.680;2023-04-15T09:26:34;3.50;;;1.80;;
70049;SDS011;57391;51.306;22.680;2023-04-15T09:29:10;5.60;;;2.50;;
70049;SDS011;57391;51.306;22.680;2023-04-15T09:31:40;4.90;;;1.80;;
70049;SDS011;57391;51.306;22.680;2023-04-15T09:34:09;3.70;;;1.60;;
70049;SDS011;57391;51.306;22.680;2023-04-15T09:39:13;5.10;;;2.00;;
70049;SDS011;57391;51.306;22.680;2023-04-15T09:41:40;3.80;;;2.00;;
70049;SDS011;57391;51.306;22.680;2023-04-15T09:44:21;4.70;;;2.00;;
70049;SDS011;57391;51.306;22.680;2023-04-15T09:46:49;4.80;;;2.10;;
70049;SDS011;57391;51.306;22.680;2023-04-15T09:49:17;4.70;;;2.30;;
70049;SDS011;57391;51.306;22.680;2023-04-15T09:51:46;5.40;;;2.80;;
70049;SDS011;57391;51.306;22.680;2023-04-15T09:54:18;5.00;;;2.30;;
70049;SDS011;57391;51.306;22.680;2023-04-15T09:56:48;5.10;;;3.00;;
70049;SDS011;57391;51.306;22.680;2023-04-15T09:59:16;6.10;;;2.80;;
70049;SDS011;57391;51.306;22.680;2023-04-15T10:01:44;6.10;;;2.90;;
70049;SDS011;57391;51.306;22.680;2023-04-15T10:04:12;9.50;;;4.40;;
70049;SDS011;57391;51.306;22.680;2023-04-15T10:06:39;18.40;;;7.50;;
70049;SDS011;57391;51.306;22.680;2023-04-15T10:09:07;10.40;;;3.80;;
70049;SDS011;57391;51.306;22.680;2023-04-15T10:11:35;6.60;;;2.80;;
70049;SDS011;57391;51.306;22.680;2023-04-15T10:14:03;9.10;;;3.60;;
70049;SDS011;57391;51.306;22.680;2023-04-15T10:16:34;5.10;;;2.10;;
70049;SDS011;57391;51.306;22.680;2023-04-15T10:19:06;8.80;;;4.50;;
70049;SDS011;57391;51.306;22.680;2023-04-15T10:21:36;3.80;;;1.80;;
70049;SDS011;57391;51.306;22.680;2023-04-15T10:24:04;4.30;;;2.10;;
70049;SDS011;57391;51.306;22.680;2023-04-15T10:26:33;6.00;;;2.00;;
70049;SDS011;57391;51.306;22.680;2023-04-15T10:29:01;2.00;;;1.00;;
70049;SDS011;57391;51.306;22.680;2023-04-15T10:31:29;3.00;;;1.30;;
70049;SDS011;57391;51.306;22.680;2023-04-15T10:33:57;4.10;;;2.00;;
70049;SDS011;57391;51.306;22.680;2023-04-15T10:36:29;3.40;;;1.70;;
70049;SDS011;57391;51.306;22.680;2023-04-15T10:38:57;3.10;;;1.30;;
70049;SDS011;57391;51.306;22.680;2023-04-15T10:41:26;2.50;;;1.40;;
70049;SDS011;57391;51.306;22.680;2023-04-15T10:44:01;3.40;;;1.30;;
70049;SDS011;57391;51.306;22.680;2023-04-15T10:46:42;4.40;;;1.70;;
70049;SDS011;57391;51.306;22.680;2023-04-15T10:49:16;2.10;;;1.10;;
70049;SDS011;57391;51.306;22.680;2023-04-15T10:51:56;5.40;;;2.20;;
70049;SDS011;57391;51.306;22.680;2023-04-15T10:57:16;2.80;;;1.40;;
70049;SDS011;57391;51.306;22.680;2023-04-15T11:02:56;4.80;;;1.70;;
70049;SDS011;57391;51.306;22.680;2023-04-15T11:08:11;3.10;;;1.70;;
70049;SDS011;57391;51.306;22.680;2023-04-15T11:15:37;6.10;;;1.60;;
70049;SDS011;57391;51.306;22.680;2023-04-15T11:18:09;17.20;;;6.60;;
70049;SDS011;57391;51.306;22.680;2023-04-15T11:20:38;5.50;;;2.10;;
70049;SDS011;57391;51.306;22.680;2023-04-15T11:23:08;3.40;;;1.40;;
70049;SDS011;57391;51.306;22.680;2023-04-15T11:25:35;1.90;;;1.10;;
70049;SDS011;57391;51.306;22.680;2023-04-15T11:28:04;1.90;;;1.00;;
70049;SDS011;57391;51.306;22.680;2023-04-15T11:30:36;2.20;;;0.90;;
70049;SDS011;57391;51.306;22.680;2023-04-15T11:33:09;2.30;;;1.00;;
70049;SDS011;57391;51.306;22.680;2023-04-15T11:35:40;1.70;;;0.90;;
70049;SDS011;57391;51.306;22.680;2023-04-15T11:38:11;1.90;;;0.90;;
70049;SDS011;57391;51.306;22.680;2023-04-15T11:40:41;2.40;;;1.20;;
70049;SDS011;57391;51.306;22.680;2023-04-15T11:45:51;2.80;;;1.30;;
70049;SDS011;57391;51.306;22.680;2023-04-15T11:48:33;2.70;;;1.10;;
70049;SDS011;57391;51.306;22.680;2023-04-15T11:51:05;6.20;;;1.70;;
70049;SDS011;57391;51.306;22.680;2023-04-15T11:53:47;2.50;;;1.30;;
70049;SDS011;57391;51.306;22.680;2023-04-15T11:56:24;2.30;;;1.00;;
70049;SDS011;57391;51.306;22.680;2023-04-15T11:58:54;10.70;;;4.20;;
70049;SDS011;57391;51.306;22.680;2023-04-15T12:01:35;5.80;;;2.40;;
70049;SDS011;57391;51.306;22.680;2023-04-15T12:04:14;7.70;;;3.60;;
70049;SDS011;57391;51.306;22.680;2023-04-15T12:06:44;3.40;;;1.60;;
70049;SDS011;57391;51.306;22.680;2023-04-15T12:09:14;3.40;;;1.70;;
70049;SDS011;57391;51.306;22.680;2023-04-15T12:11:55;4.00;;;1.90;;
70049;SDS011;57391;51.306;22.680;2023-04-15T12:14:26;5.10;;;1.70;;
70049;SDS011;57391;51.306;22.680;2023-04-15T12:16:59;4.00;;;1.80;;
70049;SDS011;57391;51.306;22.680;2023-04-15T12:19:36;4.10;;;1.70;;
70049;SDS011;57391;51.306;22.680;2023-04-15T12:22:08;3.20;;;1.60;;
70049;SDS011;57391;51.306;22.680;2023-04-15T12:24:38;3.70;;;1.50;;
70049;SDS011;57391;51.306;22.680;2023-04-15T12:27:07;3.20;;;1.40;;
70049;SDS011;57391;51.306;22.680;2023-04-15T12:29:37;4.90;;;1.70;;
70049;SDS011;57391;51.306;22.680;2023-04-15T12:32:06;4.00;;;1.60;;
70049;SDS011;57391;51.306;22.680;2023-04-15T12:34:36;2.40;;;1.30;;
70049;SDS011;57391;51.306;22.680;2023-04-15T12:37:10;4.50;;;1.70;;
70049;SDS011;57391;51.306;22.680;2023-04-15T12:39:40;2.10;;;0.90;;
70049;SDS011;57391;51.306;22.680;2023-04-15T12:42:09;2.20;;;1.10;;
70049;SDS011;57391;51.306;22.680;2023-04-15T12:44:38;3.00;;;1.50;;
70049;SDS011;57391;51.306;22.680;2023-04-15T12:47:06;2.50;;;1.10;;
70049;SDS011;57391;51.306;22.680;2023-04-15T12:49:35;2.60;;;1.20;;
70049;SDS011;57391;51.306;22.680;2023-04-15T12:52:03;3.30;;;1.30;;
70049;SDS011;57391;51.306;22.680;2023-04-15T12:54:31;3.80;;;1.90;;
70049;SDS011;57391;51.306;22.680;2023-04-15T12:56:58;1.80;;;1.20;;
70049;SDS011;57391;51.306;22.680;2023-04-15T12:59:27;2.60;;;1.20;;
70049;SDS011;57391;51.306;22.680;2023-04-15T13:01:54;1.40;;;0.80;;
70049;SDS011;57391;51.306;22.680;2023-04-15T13:04:22;2.70;;;1.00;;
70049;SDS011;57391;51.306;22.680;2023-04-15T13:06:49;2.50;;;1.20;;
70049;SDS011;57391;51.306;22.680;2023-04-15T13:09:17;3.30;;;1.20;;
70049;SDS011;57391;51.306;22.680;2023-04-15T13:11:44;4.20;;;1.40;;
70049;SDS011;57391;51.306;22.680;2023-04-15T13:14:12;3.90;;;1.50;;
70049;SDS011;57391;51.306;22.680;2023-04-15T13:16:39;3.00;;;1.30;;
70049;SDS011;57391;51.306;22.680;2023-04-15T13:19:07;4.00;;;1.50;;
70049;SDS011;57391;51.306;22.680;2023-04-15T13:21:34;2.90;;;1.40;;
70049;SDS011;57391;51.306;22.680;2023-04-15T13:24:02;3.20;;;1.10;;
70049;SDS011;57391;51.306;22.680;2023-04-15T13:26:30;2.90;;;1.40;;
70049;SDS011;57391;51.306;22.680;2023-04-15T13:28:57;4.90;;;1.60;;
70049;SDS011;57391;51.306;22.680;2023-04-15T13:31:26;3.70;;;1.80;;
70049;SDS011;57391;51.306;22.680;2023-04-15T13:33:53;3.10;;;1.40;;
70049;SDS011;57391;51.306;22.680;2023-04-15T13:36:20;3.40;;;1.50;;
70049;SDS011;57391;51.306;22.680;2023-04-15T13:38:48;1.80;;;1.00;;
70049;SDS011;57391;51.306;22.680;2023-04-15T13:41:15;1.40;;;0.90;;
70049;SDS011;57391;51.306;22.680;2023-04-15T13:43:43;2.50;;;1.10;;
70049;SDS011;57391;51.306;22.680;2023-04-15T13:46:10;2.80;;;1.30;;
70049;SDS011;57391;51.306;22.680;2023-04-15T13:48:37;2.20;;;1.20;;
70049;SDS011;57391;51.306;22.680;2023-04-15T13:51:04;1.40;;;0.90;;
70049;SDS011;57391;51.306;22.680;2023-04-15T13:53:32;3.10;;;1.30;;
70049;SDS011;57391;51.306;22.680;2023-04-15T13:55:59;3.20;;;1.20;;
70049;SDS011;57391;51.306;22.680;2023-04-15T13:58:26;2.30;;;1.00;;
70049;SDS011;57391;51.306;22.680;2023-04-15T14:00:53;1.70;;;0.90;;
70049;SDS011;57391;51.306;22.680;2023-04-15T14:03:24;2.60;;;0.90;;
70049;SDS011;57391;51.306;22.680;2023-04-15T14:05:52;1.00;;;0.70;;
70049;SDS011;57391;51.306;22.680;2023-04-15T14:08:22;1.40;;;0.90;;
70049;SDS011;57391;51.306;22.680;2023-04-15T14:10:51;1.50;;;0.90;;
70049;SDS011;57391;51.306;22.680;2023-04-15T14:13:18;2.20;;;0.90;;
70049;SDS011;57391;51.306;22.680;2023-04-15T14:15:56;1.70;;;0.80;;
70049;SDS011;57391;51.306;22.680;2023-04-15T14:18:24;2.00;;;1.10;;
70049;SDS011;57391;51.306;22.680;2023-04-15T14:20:51;1.80;;;1.00;;
70049;SDS011;57391;51.306;22.680;2023-04-15T14:23:19;2.90;;;1.30;;
70049;SDS011;57391;51.306;22.680;2023-04-15T14:25:46;1.60;;;1.10;;
70049;SDS011;57391;51.306;22.680;2023-04-15T14:28:13;2.30;;;1.10;;
70049;SDS011;57391;51.306;22.680;2023-04-15T14:30:41;2.20;;;1.00;;
70049;SDS011;57391;51.306;22.680;2023-04-15T14:33:08;5.10;;;2.10;;
70049;SDS011;57391;51.306;22.680;2023-04-15T14:35:35;2.10;;;1.30;;
70049;SDS011;57391;51.306;22.680;2023-04-15T14:38:03;2.10;;;1.00;;
70049;SDS011;57391;51.306;22.680;2023-04-15T14:40:32;2.10;;;0.80;;
70049;SDS011;57391;51.306;22.680;2023-04-15T14:42:59;2.20;;;1.00;;
70049;SDS011;57391;51.306;22.680;2023-04-15T14:45:26;1.80;;;0.90;;
70049;SDS011;57391;51.306;22.680;2023-04-15T14:47:53;2.30;;;1.00;;
70049;SDS011;57391;51.306;22.680;2023-04-15T14:50:20;2.20;;;1.00;;
70049;SDS011;57391;51.306;22.680;2023-04-15T14:52:47;1.90;;;0.90;;